Big Bear Lake, CA

8:11 PM PDT on August 21, 2014 (GMT -0700)
March Air Reserve Base | Change Station
CLOSE
Current Station
Airport
Location: Riverside March,
Elevation: 1535 ft
Nearby Weather Stations

Elev 1535 ft 33.90 °N, 117.25 °W | Updated 13 minutes ago

Clear
Clear
77 °F
Feels Like 77 °F
N
6
Wind Variable Wind from WNW

Today
High -- | Low -- °F
--% Chance of Precip.
Yesterday
High -- | Low -- °F
Precip. -- in
6:13 AM 7:27 PM
Waning Crescent, 11% visible
Pressure 29.93 in
Visibility 10.0 miles
Clouds Clear
Dew Point 62 °F
Humidity 59%
Rainfall 0.00 in
Snow Depth Not available.
UV 0 out of 12
Pollen 5.40 out of 12
Air Quality Not available.
Flu Activity Not available.
METAR KRIV 220258Z AUTO 29005KT 10SM CLR 25/17 A2996 RMK AO2 SLP134 T02520168 53022

More Conditions Fewer Conditions

Pressure 29.93 in
Visibility 10.0 miles
Clouds Clear
Dew Point 62 °F
Humidity 59%
Rainfall 0.00 in
Snow Depth Not available.
UV 0 out of 12
Pollen 5.40 out of 12
Air Quality Not available.
Flu Activity Not available.
METAR KRIV 220258Z AUTO 29005KT 10SM CLR 25/17 A2996 RMK AO2 SLP134 T02520168 53022

More Conditions Fewer Conditions

10-Day Weather Forecast

Almanac

Astronomy

Aug. 21, 2014 Rise Set
Actual Time 6:13 AM PDT 7:27 PM PDT
Civil Twilight 5:47 AM PDT 7:53 PM PDT
Nautical Twilight 5:15 AM PDT 8:24 PM PDT
Astronomical Twilight 4:43 AM PDT 8:57 PM PDT
Moon 2:51 AM PDT (8/21) 4:55 PM PDT (8/21)
Length of Visible Light 14h 06m
Length of Day
13h 14m
Tomorrow will be 1m 57s shorter.
Waning Crescent, 11% of the Moon is Illuminated
Today
Waning Crescent
Aug 25
New
Sep 2
First Quarter
Sep 8
Full
Sep 15
Last Quarter

Today's Extremes

State Highs State Lows

Community

WunderPhotos

Upload Photos

1,746,122 photos uploaded!

WunderBlogs® & News

Nearby

Air Quality

  Air Quality AQ Index Pollutant
Friday Good
OZONE
Friday Good
PM10
Friday Good
CO
Friday Good
NO2

Snow Depth

Station Depth Elevation
Leavitt Meadows 1 in 7200 ft
Summit Meadow 0 in 9122 ft
Adin Mountain 0 in 6200 ft
Cedar Pass 0 in 7100 ft

Earthquake Activity

City Distance Mag. Time & Date
Malibu Beach, California 106 miles 3.4 10:03 AM PDT
2014-08-15
Yucca Valley, California 25 miles 3.8 8:57 PM PDT
2014-08-14
Minimum magnitude displayed is 2.5.

Coastal Water Temperatures

Place Temperature
No Stations Reporting

Nearby Weather Stations